Tiempo atmosférico en la estación meteorológica de Benabarre, Huesca (765 m.)



Fecha
DESCASC
Temp. máxima en grados centígrados (hora)
DESCASC
Temp. mínima en grados centígrados (hora)
DESCASC
Temp. media en grados centígrados
DESCASC
Racha de viento máxima en m/sg (hora)
DESCASC
Velocidad máxima media en intervalos de 10 minutos(hora)
DESCASC
Precipitaciones diarias en mm
DESCASC
Precipitaciones de 00:00 a 06:00 en mm
DESCASC
Precipitaciones de 06:00 a 12:00 en mm
DESCASC
Precipitaciones de 12:00 a 18:00 en mm
DESCASC
Precipitaciones de 18:00 a 24:00 en mm
DESCASC
28-02-2021 10.2 (15:20) 3.4 (23:59) 6.8 8.33 (12:30) 5.56 (12:50) 1.8 0 1 0.8 0
27-02-2021 8.4 (17:40) 2.7 (06:30) 5.5 5 (18:40) 3.61 (18:40) 0 0 0 0 0
26-02-2021 14.5 (15:30) 3.5 (06:10) 9 5.56 (18:30) 4.17 (18:30) 0 0 0 0 0
25-02-2021 15.1 (16:40) 2.1 (00:00) 8.6 6.39 (09:30) 4.44 (09:30) 0 0 0 0 0
24-02-2021 16.3 (15:10) 4.6 (00:00) 10.4 6.67 (17:30) 4.17 (17:30) 0 0 0 0 0
23-02-2021 14 (16:30) 6.6 (00:00) 10.3 5.83 (14:40) 3.61 (13:40) 1.4 1.2 0 0.2 0
22-02-2021 11.9 (05:00) 6.8 (00:00) 9.3 16.39 (05:20) 11.11 (05:30) 22.8 0 8.2 11 3.6
21-02-2021 15.1 (13:00) 7.2 (00:00) 11.2 16.67 (15:10) 10.56 (13:50) 0 0 0 0 0
20-02-2021 17.2 (13:30) 4.9 (00:00) 11.1 10.28 (13:50) 6.94 (17:40) 0 0 0 0 0
19-02-2021 15.8 (16:20) 2.9 (00:00) 9.4 5.56 (14:50) 3.06 (18:30) 0 0 0 0 0
18-02-2021 16.9 (13:00) 4.6 (00:00) 10.7 8.06 (16:20) 5 (16:40) 0 0 0 0 0
17-02-2021 14.1 (15:10) 3.7 (00:00) 8.9 5 (16:00) 3.33 (15:50) 0 0 0 0 0
16-02-2021 13 (15:40) 5.6 (00:00) 9.3 4.72 (15:30) 3.61 (21:30) 0 0 0 0 0
15-02-2021 9.2 (15:40) 3.5 (00:00) 6.3 5 (16:20) 3.06 (16:10) 0 0 0 0 0
14-02-2021 6.6 (13:10) 3 (00:00) 4.8 5.56 (21:20) 4.17 (05:20) 0.2 0 0.2 0 0
13-02-2021 12.9 (14:40) 1.9 (00:00) 7.4 7.22 (00:50) 6.11 (00:50) 0 0 0 0 0
12-02-2021 9.6 (13:00) 5 (00:00) 7.3 6.67 (16:30) 5 (21:40) 3.2 0 0.2 3 0
11-02-2021 12.8 (16:30) -0.4 (00:00) 6.2 6.67 (16:50) 4.72 (17:00) 0 0 0 0 0
10-02-2021 9.8 (16:10) 1.7 (00:00) 5.8 11.67 (15:40) 7.78 (17:00) 2 0.2 1.8 0 0
09-02-2021 6 (13:10) 0.8 (00:00) 3.4 6.39 (17:20) 4.72 (17:20) 7.2 0 0.4 6.2 0.6
08-02-2021 6.3 (15:00) 1.8 (00:00) 4.1 7.78 (17:00) 5 (17:10) 2.8 0.2 0.4 2.2 0
07-02-2021 9.9 (15:10) 3.4 (00:00) 6.6 8.33 (16:40) 4.72 (16:50) 0.6 0.6 0 0 0
06-02-2021 13.6 (02:40) 3.7 (00:00) 8.7 8.89 (01:10) 6.39 (01:10) 0 0 0 0 0
05-02-2021 16.7 (12:30) 9.2 (00:00) 13 11.39 (12:50) 8.06 (12:20) 0 0 0 0 0
04-02-2021 14.9 (14:10) 5.9 (00:00) 10.4 7.22 (16:20) 5.28 (16:20) 0 0 0 0 0
03-02-2021 14.3 (15:30) 2.9 (00:00) 8.6 8.33 (16:20) 5.56 (16:10) 0 0 0 0 0
02-02-2021 14.7 (16:10) 4.7 (00:00) 9.7 10.28 (03:10) 6.39 (03:10) 0 0 0 0 0
01-02-2021 13.9 (15:50) 6.6 (00:00) 10.2 16.94 (12:00) 11.39 (12:00) 1.6 1.4 0.2 0 0
31-01-2021 12.3 (15:30) 3.1 (00:00) 7.7 14.17 (11:40) 8.61 (11:40) 0 0 0 0 0
30-01-2021 11.1 (13:30) 5 (00:00) 8.1 13.89 (23:50) 9.72 (23:50) 4.4 0 2.8 1.6 0

Gráficas

Temp. máximas Temp. mínimas Temp. medias Precipitaciones Rachas de viento máximas Velocidades máximas media en intervalos de 10 minutos

Datos horarios

Fecha y hora oficial Temperatura (ºC) Velocidad del viento (km/h) Dirección del viento Racha (km/h) Dirección de racha Precipitación (mm) Presión (hPa) Tendencia (hPa) Humedad (%)
2021-02-28 23:00:00 5 5 Este 9 Este 0 -- -- 90
2021-02-28 22:00:00 5 3 Este 15 Este 0 -- -- 88
2021-02-28 21:00:00 6.3 8 Este 13 Nordeste 0 -- -- 85
2021-02-28 20:00:00 6.7 7 Nordeste 18 Este 0 -- -- 84
2021-02-28 19:00:00 7.9 14 Este 23 Sudeste 0 -- -- 81
2021-02-28 18:00:00 8.9 15 Sudeste 23 Sudeste 0 -- -- 76
2021-02-28 17:00:00 8.6 11 Sudeste 22 Este 0 -- -- 81
2021-02-28 16:00:00 9.1 17 Sudeste 28 Sudeste 0 -- -- 76
2021-02-28 15:00:00 9.7 15 Sudeste 27 Sudeste 0 -- -- 75
2021-02-28 14:00:00 9.5 16 Sudeste 30 Sudeste 0.4 -- -- 78
2021-02-28 13:00:00 7.9 13 Sudeste 30 Sudeste 0.4 -- -- 87
2021-02-28 12:00:00 8.7 13 Sudeste 26 Sudeste 0 -- -- 83
2021-02-28 11:00:00 8 12 Este 20 Este 0 -- -- 85
2021-02-28 10:00:00 7.5 7 Sudeste 10 Sudeste 0 -- -- 93
2021-02-28 09:00:00 6.1 0 Calma 7 Este 0 -- -- 97
2021-02-28 08:00:00 5.8 4 Este 9 Este 1 -- -- 95
2021-02-28 07:00:00 6.3 5 Sudeste 8 Nordeste 0 -- -- 90
2021-02-28 06:00:00 6.6 6 Este 13 Este 0 -- -- 90
2021-02-28 05:00:00 6.3 8 Este 14 Este 0 -- -- 93
2021-02-28 04:00:00 6.1 4 Este 10 Este 0 -- -- 93
2021-02-28 03:00:00 6.5 9 Este 18 Nordeste 0 -- -- 92
2021-02-28 02:00:00 5.6 3 Este 9 Este 0 -- -- 96
2021-02-28 01:00:00 5.4 6 Este 10 Este 0 -- -- 97
2021-02-28 00:00:00 4.1 5 Nordeste 9 Nordeste 0 -- -- 97
2021-02-27 23:00:00 3.7 4 Este 8 Nordeste 0 -- -- 97
2021-02-27 22:00:00 4.5 4 Este 7 Sudeste 0 -- -- 96
2021-02-27 21:00:00 5.6 6 Sudeste 14 Sudeste 0 -- -- 96
2021-02-27 20:00:00 6 9 Este 13 Este 0 -- -- 95
2021-02-27 19:00:00 6.6 8 Sudeste 18 Este 0 -- -- 92
2021-02-27 18:00:00 8.2 8 Este 14 Este 0 -- -- 89
2021-02-27 17:00:00 8.2 6 Norte 13 Noroeste 0 -- -- 92
2021-02-27 16:00:00 7.8 6 Oeste 13 Oeste 0 -- -- 95
2021-02-27 15:00:00 7.4 7 Sudeste 10 Sur 0 -- -- 99
2021-02-27 14:00:00 -- -- -- -- -- -- -- -- --
2021-02-27 13:00:00 6.8 7 Sudeste 11 Este 0 -- -- 100
2021-02-27 12:00:00 6.3 7 Sudeste 12 Sudeste 0 -- -- 100
2021-02-27 11:00:00 5.2 7 Este 13 Este 0 -- -- 100
2021-02-27 10:00:00 3.7 7 Este 11 Este 0 -- -- 100
2021-02-27 09:00:00 3.4 3 Sudeste 9 Este 0 -- -- 99
2021-02-27 08:00:00 3.6 3 Sudeste 9 Noroeste 0 -- -- 99
2021-02-27 07:00:00 3 5 Noroeste 8 Noroeste 0 -- -- 99
2021-02-27 06:00:00 2.9 6 Norte 10 Norte 0 -- -- 99
2021-02-27 05:00:00 3.3 5 Norte 7 Norte 0 -- -- 99
2021-02-27 04:00:00 4.6 4 Norte 9 Norte 0 -- -- 99
2021-02-27 03:00:00 5.6 4 Norte 8 Noroeste 0 -- -- 98
2021-02-27 02:00:00 6.6 8 Noroeste 13 Noroeste 0 -- -- 98
2021-02-27 01:00:00 6.8 8 Noroeste 13 Noroeste 0 -- -- 98
2021-02-27 00:00:00 6.4 7 Noroeste 13 Noroeste 0 -- -- 97
2021-02-26 23:00:00 6.5 6 Noroeste 13 Noroeste 0 -- -- 95
2021-02-26 22:00:00 8.2 10 Noroeste 15 Noroeste 0 -- -- 93
2021-02-26 21:00:00 8.9 13 Noroeste 15 Noroeste 0 -- -- 92
2021-02-26 20:00:00 9.3 10 Noroeste 19 Noroeste 0 -- -- 90
2021-02-26 19:00:00 10.1 14 Noroeste 20 Noroeste 0 -- -- 86
2021-02-26 18:00:00 11.9 11 Noroeste 18 Noroeste 0 -- -- 78
2021-02-26 17:00:00 13.7 9 Noroeste 15 Oeste 0 -- -- 68
2021-02-26 16:00:00 14.3 11 Noroeste 17 Noroeste 0 -- -- 60
2021-02-26 15:00:00 14 9 Oeste 18 Oeste 0 -- -- 59
2021-02-26 14:00:00 12.8 11 Noroeste 17 Oeste 0 -- -- 58
2021-02-26 13:00:00 12.3 9 Oeste 15 Oeste 0 -- -- 59
2021-02-26 12:00:00 11.4 10 Oeste 14 Oeste 0 -- -- 62
2021-02-26 11:00:00 10.3 6 Oeste 9 Noroeste 0 -- -- 74
2021-02-26 10:00:00 8.8 0 Calma 4 Sur 0 -- -- 81
2021-02-26 09:00:00 6.1 0 Calma 10 Norte 0 -- -- 89
2021-02-26 08:00:00 3.7 7 Norte 12 Norte 0 -- -- 90
2021-02-26 07:00:00 3.8 9 Norte 12 Norte 0 -- -- 91
2021-02-26 06:00:00 3.7 9 Norte 12 Norte 0 -- -- 93
2021-02-26 05:00:00 3.7 8 Norte 11 Norte 0 -- -- 93
2021-02-26 04:00:00 4.3 6 Norte 12 Norte 0 -- -- 91
2021-02-26 03:00:00 4.2 9 Norte 12 Norte 0 -- -- 93
2021-02-26 02:00:00 4.4 5 Norte 10 Norte 0 -- -- 94
2021-02-26 01:00:00 4.6 8 Norte 12 Norte 0 -- -- 94
2021-02-26 00:00:00 5.1 8 Norte 11 Norte 0 -- -- 93
2021-02-25 23:00:00 5.5 8 Norte 14 Norte 0 -- -- 92
2021-02-25 22:00:00 5.4 10 Norte 12 Norte 0 -- -- 92
2021-02-25 21:00:00 6.1 8 Norte 10 Noroeste 0 -- -- 88
2021-02-25 20:00:00 7.7 7 Norte 12 Norte 0 -- -- 83
2021-02-25 19:00:00 10.6 7 Noroeste 16 Noroeste 0 -- -- 79
2021-02-25 18:00:00 13 10 Oeste 14 Oeste 0 -- -- 70
2021-02-25 17:00:00 15.1 5 Sur 9 Oeste 0 -- -- 49
2021-02-25 16:00:00 14.8 5 Sudoeste 12 Este 0 -- -- 48
2021-02-25 15:00:00 14.3 6 Sudeste 13 Sudeste 0 -- -- 49
2021-02-25 14:00:00 13.8 8 Sudeste 15 Este 0 -- -- 55
2021-02-25 13:00:00 12.1 4 Sur 15 Este 0 -- -- 64
2021-02-25 12:00:00 10.5 6 Sur 21 Sudeste 0 -- -- 70
2021-02-25 11:00:00 9.2 15 Este 21 Este 0 -- -- 76
2021-02-25 10:00:00 7.4 15 Este 23 Este 0 -- -- 82
2021-02-25 09:00:00 5.9 16 Este 22 Nordeste 0 -- -- 92
2021-02-25 08:00:00 4.5 12 Este 17 Este 0 -- -- 98
2021-02-25 07:00:00 3.2 3 Sudeste 15 Este 0 -- -- 97
2021-02-25 06:00:00 3.1 8 Este 11 Nordeste 0 -- -- 97
2021-02-25 05:00:00 2.3 3 Este 7 Norte 0 -- -- 97
2021-02-25 04:00:00 3.6 4 Nordeste 14 Este 0 -- -- 96
2021-02-25 03:00:00 4 8 Este 11 Sudeste 0 -- -- 95
2021-02-25 02:00:00 3.8 0 Calma 9 Norte 0 -- -- 94
2021-02-25 01:00:00 5.4 5 Este 13 Este 0 -- -- 91
2021-02-25 00:00:00 5 3 Nordeste 10 Nordeste 0 -- -- 93
2021-02-24 23:00:00 5.6 2 Nordeste 8 Norte 0 -- -- 93
2021-02-24 22:00:00 6.6 2 Norte 10 Este 0 -- -- 90
2021-02-24 21:00:00 9 6 Este 14 Este 0 -- -- 87
2021-02-24 20:00:00 10.2 6 Este 9 Este 0 -- -- 83
2021-02-24 19:00:00 12 6 Sudeste 17 Sudeste 0 -- -- 73
2021-02-24 18:00:00 13.8 10 Sur 24 Sudeste 0 -- -- 65
2021-02-24 17:00:00 14.8 14 Sur 23 Sur 0 -- -- 63
2021-02-24 16:00:00 15.2 14 Sur 23 Sudeste 0 -- -- 64
2021-02-24 15:00:00 16.1 14 Sudeste 22 Sudeste 0 -- -- 62
2021-02-24 14:00:00 16 9 Sudeste 19 Sudeste 0 -- -- 60
2021-02-24 13:00:00 15.3 9 Sudeste 14 Sudeste 0 -- -- 64
2021-02-24 12:00:00 13.9 7 Sudeste 13 Este 0 -- -- 68
2021-02-24 11:00:00 11.7 6 Sudeste 11 Sudeste 0 -- -- 75
2021-02-24 10:00:00 9.2 6 Sudeste 9 Sudeste 0 -- -- 84
2021-02-24 09:00:00 5.9 0 Calma 5 Este 0 -- -- 96
2021-02-24 08:00:00 4.9 0 Calma 6 Norte 0 -- -- 96
2021-02-24 07:00:00 4.9 3 Nordeste 9 Este 0 -- -- 93
2021-02-24 06:00:00 6.8 5 Norte 15 Este 0 -- -- 90
2021-02-24 05:00:00 7.8 8 Nordeste 14 Nordeste 0 -- -- 90
2021-02-24 04:00:00 6.9 6 Este 20 Este 0 -- -- 92
2021-02-24 03:00:00 6.6 10 Nordeste 13 Nordeste 0 -- -- 91
2021-02-24 02:00:00 6.2 3 Nordeste 10 Norte 0 -- -- 94
2021-02-24 01:00:00 6.5 8 Este 12 Este 0 -- -- 95
2021-02-24 00:00:00 6.7 8 Este 9 Este 0 -- -- 92
2021-02-23 23:00:00 6.7 4 Nordeste 9 Norte 0 -- -- 92
2021-02-23 22:00:00 7.4 3 Este 8 Este 0 -- -- 89
2021-02-23 21:00:00 7.8 4 Este 8 Norte 0 -- -- 88
2021-02-23 20:00:00 8.9 5 Nordeste 9 Nordeste 0 -- -- 84
2021-02-23 19:00:00 11 4 Nordeste 12 Sudeste 0 -- -- 76
2021-02-23 18:00:00 12.9 5 Sudeste 17 Sudeste 0 -- -- 69
2021-02-23 17:00:00 13.9 9 Sudeste 15 Sudeste 0 -- -- 67
2021-02-23 16:00:00 13.7 10 Sudeste 18 Sudeste 0 -- -- 70
2021-02-23 15:00:00 13.2 10 Este 21 Este 0 -- -- 77
2021-02-23 14:00:00 11.1 10 Sur 19 Sudeste 0.2 -- -- 83
2021-02-23 13:00:00 11 11 Sur 17 Sur 0 -- -- 87
2021-02-23 12:00:00 9.6 9 Sudeste 14 Sur 0 -- -- 95
2021-02-23 11:00:00 8.9 5 Sudeste 8 Sudeste 0 -- -- 99
2021-02-23 10:00:00 7.5 4 Sudoeste 6 Oeste 0 -- -- 99
2021-02-23 09:00:00 7 5 Noroeste 9 Noroeste 0 -- -- 98
2021-02-23 08:00:00 7.4 4 Sudoeste 12 Este 0 -- -- 98
2021-02-23 07:00:00 7.1 3 Sudeste 14 Este 0 -- -- 99
2021-02-23 06:00:00 7 4 Nordeste 9 Este 0 -- -- 99
2021-02-23 05:00:00 6.7 4 Sudeste 9 Sudeste 0.2 -- -- 99
2021-02-23 04:00:00 6.7 5 Norte 9 Oeste 0.6 -- -- 98
2021-02-23 03:00:00 6.8 3 Noroeste 5 Oeste 0.2 -- -- 98
2021-02-23 02:00:00 6.8 0 Calma 4 Sudeste 0.2 -- -- 98
2021-02-23 01:00:00 6.8 4 Este 8 Nordeste 0 -- -- 98
2021-02-23 00:00:00 6.8 5 Este 9 Noroeste 0.6 -- -- 99
2021-02-22 23:00:00 7 7 Noroeste 10 Oeste 0.6 -- -- 98
2021-02-22 22:00:00 7.2 6 Oeste 10 Noroeste 1 -- -- 98
2021-02-22 21:00:00 7.3 4 Noroeste 8 Noroeste 0.4 -- -- 98
2021-02-22 20:00:00 7.4 6 Oeste 8 Oeste 0.6 -- -- 97
2021-02-22 19:00:00 7.4 2 Norte 5 Nordeste 0.4 -- -- 97
2021-02-22 18:00:00 7.8 4 Sudeste 6 Sudeste 0.8 -- -- 95
2021-02-22 17:00:00 7.8 3 Sudoeste 6 Sudoeste 0.8 -- -- 94
2021-02-22 16:00:00 7.6 2 Noroeste 8 Sur 2 -- -- 93
2021-02-22 15:00:00 7.6 4 Sudoeste 11 Sudeste 2.2 -- -- 96
2021-02-22 14:00:00 7.4 6 Sudeste 19 Sudeste 3.4 -- -- 96
2021-02-22 13:00:00 8 13 Sudeste 41 Este 1.8 -- -- 94
2021-02-22 12:00:00 8.6 15 Este 40 Sudeste 3 -- -- 96
2021-02-22 11:00:00 8.7 25 Sudeste 45 Sudeste 1.2 -- -- 94
2021-02-22 10:00:00 8.6 23 Sudeste 37 Sudeste 2.4 -- -- 94
2021-02-22 09:00:00 8.4 13 Este 47 Sudeste 1.6 -- -- 92
2021-02-22 08:00:00 10 28 Sudeste 44 Sudeste 0 -- -- 81
2021-02-22 07:00:00 10.1 29 Sudeste 50 Sudeste 0 -- -- 82
2021-02-22 06:00:00 10.2 31 Sudeste 59 Este 0 -- -- 84
2021-02-22 05:00:00 11.9 31 Sudeste 50 Sudeste 0 -- -- 67
2021-02-22 04:00:00 11.2 27 Este 53 Este 0 -- -- 73
2021-02-22 03:00:00 10.8 21 Este 44 Este 0 -- -- 74
2021-02-22 02:00:00 11.4 23 Este 47 Sudeste 0 -- -- 70
2021-02-22 01:00:00 11.3 23 Este 35 Este 0 -- -- 67
2021-02-22 00:00:00 11.3 24 Este 32 Este 0 -- -- 64
2021-02-21 23:00:00 11.6 20 Sudeste 38 Sudeste 0 -- -- 63
2021-02-21 22:00:00 11.6 13 Sudeste 30 Este 0 -- -- 59
2021-02-21 21:00:00 12 21 Este 30 Este 0 -- -- 56
2021-02-21 20:00:00 11.4 20 Sudeste 37 Este 0 -- -- 59
2021-02-21 19:00:00 11.4 20 Sudeste 36 Sudeste 0 -- -- 59
2021-02-21 18:00:00 11.9 20 Sudeste 42 Este 0 -- -- 56
2021-02-21 17:00:00 13 27 Este 42 Sudeste 0 -- -- 52
2021-02-21 16:00:00 12.9 33 Sudeste 60 Sudeste 0 -- -- 52
2021-02-21 15:00:00 13.9 32 Sudeste 54 Sudeste 0 -- -- 45
2021-02-21 14:00:00 14.5 38 Sudeste 56 Sudeste 0 -- -- 42
2021-02-21 13:00:00 15.1 32 Sudeste 54 Sudeste 0 -- -- 38
2021-02-21 12:00:00 14.5 32 Sudeste 46 Sudeste 0 -- -- 35
2021-02-21 11:00:00 13.3 30 Este 45 Este 0 -- -- 35
2021-02-21 10:00:00 11.5 31 Este 43 Este 0 -- -- 39
2021-02-21 09:00:00 10.2 28 Este 43 Este 0 -- -- 39
2021-02-21 08:00:00 9 28 Este 42 Este 0 -- -- 42
2021-02-21 07:00:00 8.7 26 Este 35 Este 0 -- -- 45
2021-02-21 06:00:00 8.9 18 Este 33 Este 0 -- -- 49
2021-02-21 05:00:00 9.2 23 Este 36 Nordeste 0 -- -- 48
2021-02-21 04:00:00 8.9 24 Este 34 Este 0 -- -- 51
2021-02-21 03:00:00 8.7 24 Este 35 Nordeste 0 -- -- 53
2021-02-21 02:00:00 8 21 Este 29 Este 0 -- -- 56
2021-02-21 01:00:00 7.9 16 Este 25 Este 0 -- -- 59
2021-02-21 00:00:00 7.2 10 Este 14 Este 0 -- -- 65
2021-02-20 23:00:00 7.6 9 Este 18 Sudeste 0 -- -- 66
2021-02-20 22:00:00 8.6 12 Este 19 Sudeste 0 -- -- 67
2021-02-20 21:00:00 8.9 13 Este 20 Este 0 -- -- 65
2021-02-20 20:00:00 10.3 15 Este 26 Este 0 -- -- 63
2021-02-20 19:00:00 12.4 18 Sudeste 31 Sudeste 0 -- -- 55
2021-02-20 18:00:00 14.3 19 Sudeste 36 Este 0 -- -- 47
2021-02-20 17:00:00 16.4 21 Sudeste 32 Sudeste 0 -- -- 38
2021-02-20 16:00:00 16.6 18 Sudeste 35 Sudeste 0 -- -- 36
2021-02-20 15:00:00 16.5 18 Sudeste 35 Sudeste 0 -- -- 35
2021-02-20 14:00:00 16.1 19 Sur 37 Sur 0 -- -- 34
2021-02-20 13:00:00 16.9 17 Sudeste 32 Sudeste 0 -- -- 36
2021-02-20 12:00:00 15.9 18 Sudeste 27 Sudeste 0 -- -- 40
2021-02-20 11:00:00 14.5 10 Sudeste 23 Sudeste 0 -- -- 48
2021-02-20 10:00:00 11.1 17 Este 23 Este 0 -- -- 51
2021-02-20 09:00:00 8.5 8 Sudeste 23 Este 0 -- -- 60
2021-02-20 08:00:00 7.2 17 Este 25 Este 0 -- -- 61
2021-02-20 07:00:00 6.4 9 Este 20 Este 0 -- -- 66
2021-02-20 06:00:00 7 12 Este 20 Este 0 -- -- 63
2021-02-20 05:00:00 6 5 Este 15 Este 0 -- -- 70
2021-02-20 04:00:00 5.7 11 Nordeste 19 Nordeste 0 -- -- 70
2021-02-20 03:00:00 6.7 7 Sudeste 15 Este 0 -- -- 67
2021-02-20 02:00:00 5.9 6 Este 9 Este 0 -- -- 71
2021-02-20 01:00:00 5.2 2 Este 14 Nordeste 0 -- -- 74
2021-02-20 00:00:00 7.1 6 Sudeste 12 Este 0 -- -- 67
2021-02-19 23:00:00 6.4 6 Este 8 Este 0 -- -- 73
2021-02-19 22:00:00 6.6 4 Nordeste 10 Norte 0 -- -- 71
2021-02-19 21:00:00 7.4 6 Nordeste 13 Norte 0 -- -- 69
2021-02-19 20:00:00 7.8 5 Norte 9 Norte 0 -- -- 69
2021-02-19 19:00:00 12.1 3 Sudeste 19 Sudeste 0 -- -- 55
2021-02-19 18:00:00 15.3 5 Oeste 15 Oeste 0 -- -- 38
2021-02-19 17:00:00 15.4 9 Noroeste 15 Oeste 0 -- -- 36
2021-02-19 16:00:00 15.6 8 Noroeste 20 Oeste 0 -- -- 39
2021-02-19 15:00:00 15.3 7 Oeste 20 Oeste 0 -- -- 41
2021-02-19 14:00:00 14.9 10 Oeste 16 Oeste 0 -- -- 46
2021-02-19 13:00:00 14 5 Oeste 14 Oeste 0 -- -- 51
2021-02-19 12:00:00 13.2 6 Oeste 14 Noroeste 0 -- -- 51
2021-02-19 11:00:00 11.6 3 Sur 9 Este 0 -- -- 62
2021-02-19 10:00:00 7.5 2 Sudoeste 6 Sudoeste 0 -- -- 77
2021-02-19 09:00:00 4.4 0 Calma 10 Norte 0 -- -- 87
2021-02-19 08:00:00 2.9 5 Norte 8 Norte 0 -- -- 89
2021-02-19 07:00:00 3.3 3 Nordeste 9 Norte 0 -- -- 89
2021-02-19 06:00:00 3.3 5 Norte 9 Norte 0 -- -- 89
2021-02-19 05:00:00 3.9 3 Norte 9 Norte 0 -- -- 86
2021-02-19 04:00:00 4.1 3 Norte 8 Norte 0 -- -- 85
2021-02-19 03:00:00 4.6 0 Calma 12 Norte 0 -- -- 82
2021-02-19 02:00:00 4.6 4 Norte 11 Norte 0 -- -- 80
2021-02-19 01:00:00 5 4 Norte 10 Norte 0 -- -- 76
2021-02-19 00:00:00 4.8 9 Norte 12 Noroeste 0 -- -- 78
2021-02-18 23:00:00 5.5 9 Norte 13 Norte 0 -- -- 73
2021-02-18 22:00:00 6 8 Norte 14 Norte 0 -- -- 67
2021-02-18 21:00:00 6.8 6 Norte 13 Norte 0 -- -- 65
2021-02-18 20:00:00 7.8 9 Norte 14 Norte 0 -- -- 64
2021-02-18 19:00:00 10 9 Norte 12 Noroeste 0 -- -- 56
2021-02-18 18:00:00 14.4 8 Oeste 23 Oeste 0 -- -- 39
2021-02-18 17:00:00 16.1 14 Oeste 29 Oeste 0 -- -- 36
2021-02-18 16:00:00 16.2 15 Oeste 26 Oeste 0 -- -- 37
2021-02-18 15:00:00 16.5 13 Oeste 20 Oeste 0 -- -- 46
2021-02-18 14:00:00 15.9 8 Oeste 21 Oeste 0 -- -- 46
2021-02-18 13:00:00 16.9 6 Sur 13 Este 0 -- -- 46
2021-02-18 12:00:00 15.5 8 Sur 14 Este 0 -- -- 54
2021-02-18 11:00:00 13.7 10 Sudeste 15 Sudeste 0 -- -- 64
2021-02-18 10:00:00 11 7 Sudeste 12 Este 0 -- -- 75
2021-02-18 09:00:00 7.1 3 Sudeste 8 Este 0 -- -- 86
2021-02-18 08:00:00 5.4 3 Norte 9 Norte 0 -- -- 86
2021-02-18 07:00:00 4.6 7 Nordeste 15 Nordeste 0 -- -- 91
2021-02-18 06:00:00 6.6 4 Sudeste 15 Este 0 -- -- 87
2021-02-18 05:00:00 6.6 10 Nordeste 14 Este 0 -- -- 87
2021-02-18 04:00:00 5.2 7 Norte 10 Norte 0 -- -- 91
2021-02-18 03:00:00 5.3 6 Nordeste 11 Nordeste 0 -- -- 93
2021-02-18 02:00:00 5.7 2 Nordeste 12 Nordeste 0 -- -- 91
2021-02-18 01:00:00 5.2 10 Norte 13 Nordeste 0 -- -- 92
2021-02-18 00:00:00 6.1 3 Norte 11 Norte 0 -- -- 91
2021-02-17 23:00:00 6 9 Norte 11 Norte 0 -- -- 92
2021-02-17 22:00:00 6.5 6 Norte 10 Norte 0 -- -- 92
2021-02-17 21:00:00 7.2 4 Norte 13 Norte 0 -- -- 86
2021-02-17 20:00:00 7.8 11 Norte 13 Norte 0 -- -- 87
2021-02-17 19:00:00 10.6 3 Norte 6 Este 0 -- -- 80
2021-02-17 18:00:00 12.3 5 Noroeste 12 Noroeste 0 -- -- 76
2021-02-17 17:00:00 13.3 10 Oeste 17 Oeste 0 -- -- 69
2021-02-17 16:00:00 13.8 11 Noroeste 18 Noroeste 0 -- -- 69
2021-02-17 15:00:00 14 8 Oeste 14 Oeste 0 -- -- 63
2021-02-17 14:00:00 13.2 9 Noroeste 12 Oeste 0 -- -- 70
2021-02-17 13:00:00 13.2 5 Sudoeste 12 Sudoeste 0 -- -- 70
2021-02-17 12:00:00 10.9 5 Sudoeste 10 Sudeste 0 -- -- 78
2021-02-17 11:00:00 9.2 4 Sudeste 8 Sudeste 0 -- -- 86
2021-02-17 10:00:00 6.3 2 Este 6 Norte 0 -- -- 96
2021-02-17 09:00:00 4.8 5 Norte 8 Norte 0 -- -- 96
2021-02-17 08:00:00 3.8 6 Norte 9 Norte 0 -- -- 96
2021-02-17 07:00:00 3.7 4 Norte 13 Norte 0 -- -- 96
2021-02-17 06:00:00 4.1 6 Norte 10 Norte 0 -- -- 96
2021-02-17 05:00:00 4.3 3 Norte 11 Norte 0 -- -- 96
2021-02-17 04:00:00 4.6 5 Norte 8 Norte 0 -- -- 95
2021-02-17 03:00:00 4.8 4 Norte 8 Norte 0 -- -- 95
2021-02-17 02:00:00 5.4 3 Nordeste 7 Norte 0 -- -- 93
2021-02-17 01:00:00 6.7 5 Este 10 Noroeste 0 -- -- 90
2021-02-17 00:00:00 7.6 7 Noroeste 11 Noroeste 0 -- -- 90
2021-02-16 23:00:00 7.6 0 Calma 9 Oeste 0 -- -- 87
2021-02-16 22:00:00 8.6 6 Noroeste 17 Noroeste 0 -- -- 82
2021-02-16 21:00:00 9.3 11 Noroeste 14 Noroeste 0 -- -- 80
2021-02-16 20:00:00 9.5 8 Noroeste 12 Noroeste 0 -- -- 79
2021-02-16 19:00:00 9.5 6 Noroeste 10 Noroeste 0 -- -- 79
2021-02-16 18:00:00 10.9 5 Noroeste 12 Oeste 0 -- -- 73
2021-02-16 17:00:00 12.5 4 Oeste 15 Oeste 0 -- -- 66
2021-02-16 16:00:00 12.6 10 Oeste 17 Oeste 0 -- -- 67
2021-02-16 15:00:00 12.6 10 Noroeste 16 Oeste 0 -- -- 67
2021-02-16 14:00:00 11.9 6 Oeste 13 Noroeste 0 -- -- 67
2021-02-16 13:00:00 9.9 7 Oeste 14 Sudoeste 0 -- -- 72
2021-02-16 12:00:00 8.8 6 Oeste 12 Oeste 0 -- -- 78
2021-02-16 11:00:00 7.4 4 Noroeste 11 Norte 0 -- -- 82
2021-02-16 10:00:00 6.3 0 Calma 9 Norte 0 -- -- 86
2021-02-16 09:00:00 5.7 2 Norte 6 Norte 0 -- -- 88
2021-02-16 08:00:00 5.6 0 Calma 10 Este 0 -- -- 92
2021-02-16 07:00:00 5.9 0 Calma 9 Nordeste 0 -- -- 85
2021-02-16 06:00:00 6.1 3 Nordeste 9 Noroeste 0 -- -- 84
2021-02-16 05:00:00 6.1 2 Noroeste 8 Oeste 0 -- -- 87
2021-02-16 04:00:00 6.2 0 Calma 7 Noroeste 0 -- -- 88
2021-02-16 03:00:00 6 0 Calma 4 Noroeste 0 -- -- 93
2021-02-16 02:00:00 6 0 Calma 3 Norte 0 -- -- 93
2021-02-16 01:00:00 6 0 Calma 5 Nordeste 0 -- -- 92
2021-02-16 00:00:00 6 3 Sudeste 8 Este 0 -- -- 92
2021-02-15 23:00:00 6 5 Este 7 Este 0 -- -- 92
2021-02-15 22:00:00 6.1 5 Este 12 Sudeste 0 -- -- 91
2021-02-15 21:00:00 6.4 6 Sudeste 10 Sudeste 0 -- -- 90
2021-02-15 20:00:00 6.6 7 Sudeste 13 Sudeste 0 -- -- 88
2021-02-15 19:00:00 6.8 6 Sudeste 17 Sur 0 -- -- 87
2021-02-15 18:00:00 7.5 8 Sur 16 Sudeste 0 -- -- 82
2021-02-15 17:00:00 8 10 Sur 18 Sur 0 -- -- 79
2021-02-15 16:00:00 8.6 10 Sur 15 Sur 0 -- -- 78
2021-02-15 15:00:00 8.5 7 Sudeste 14 Sudeste 0 -- -- 78
2021-02-15 14:00:00 7.7 6 Sudeste 12 Este 0 -- -- 83
2021-02-15 13:00:00 7.3 6 Este 14 Este 0 -- -- 85
2021-02-15 12:00:00 6.5 5 Este 11 Este 0 -- -- 88
2021-02-15 11:00:00 5.5 4 Sudeste 6 Sudeste 0 -- -- 92
2021-02-15 10:00:00 4.8 2 Sudeste 4 Sudeste 0 -- -- 95
2021-02-15 09:00:00 4.2 3 Sudeste 4 Sudeste 0 -- -- 97
2021-02-15 08:00:00 4 0 Calma 4 Norte 0 -- -- 96
2021-02-15 07:00:00 4.1 0 Calma 6 Norte 0 -- -- 97
2021-02-15 06:00:00 3.8 4 Norte 7 Norte 0 -- -- 97
2021-02-15 05:00:00 3.6 0 Calma 4 Sudeste 0 -- -- 97
2021-02-15 04:00:00 3.5 2 Este 5 Este 0 -- -- 97
2021-02-15 03:00:00 3.6 4 Este 5 Este 0 -- -- 97
2021-02-15 02:00:00 3.5 4 Este 8 Este 0 -- -- 98
2021-02-15 01:00:00 3.5 6 Este 11 Sudeste 0 -- -- 98
2021-02-15 00:00:00 3.6 7 Sudeste 11 Sudeste 0 -- -- 98
2021-02-14 23:00:00 3.6 5 Sudeste 17 Sudeste 0 -- -- 98
2021-02-14 22:00:00 3.7 9 Sudeste 20 Sudeste 0 -- -- 98
2021-02-14 21:00:00 4.2 8 Sudeste 15 Sudeste 0 -- -- 98
2021-02-14 20:00:00 4.5 9 Sudeste 15 Sudeste 0 -- -- 97
2021-02-14 19:00:00 5 10 Sudeste 18 Sudeste 0 -- -- 97
2021-02-14 18:00:00 5.7 9 Sudeste 15 Sudeste 0 -- -- 95
2021-02-14 17:00:00 6.3 11 Sudeste 19 Sudeste 0 -- -- 93
2021-02-14 16:00:00 6.3 12 Sudeste 18 Sudeste 0 -- -- 93
2021-02-14 15:00:00 6.4 9 Sudeste 14 Sur 0 -- -- 97
2021-02-14 14:00:00 6 8 Sudeste 15 Sudeste 0 -- -- 97
2021-02-14 13:00:00 6.5 8 Sudeste 11 Sudeste 0 -- -- 97
2021-02-14 12:00:00 6.3 6 Sudeste 10 Este 0 -- -- 96
2021-02-14 11:00:00 5.7 0 Calma 13 Nordeste 0.2 -- -- 96
2021-02-14 10:00:00 5.3 9 Este 12 Sudeste 0 -- -- 96
2021-02-14 09:00:00 5.1 0 Calma 10 Nordeste 0 -- -- 97
2021-02-14 08:00:00 5.2 4 Sudeste 16 Nordeste 0 -- -- 96
2021-02-14 07:00:00 5 10 Nordeste 15 Este 0 -- -- 98
2021-02-14 06:00:00 4.5 11 Este 19 Nordeste 0 -- -- 98
2021-02-14 05:00:00 3 8 Nordeste 12 Nordeste 0 -- -- 97
2021-02-14 04:00:00 4.5 9 Este 14 Este 0 -- -- 99
2021-02-14 03:00:00 3.7 6 Este 11 Nordeste 0 -- -- 98
2021-02-14 02:00:00 4.2 10 Nordeste 13 Este 0 -- -- 96
2021-02-14 01:00:00 5.1 6 Este 12 Este 0 -- -- 97
2021-02-14 00:00:00 5.6 6 Este 10 Este 0 -- -- 97
2021-02-13 23:00:00 5.5 8 Este 13 Este 0 -- -- 97
2021-02-13 22:00:00 4.9 3 Este 10 Nordeste 0 -- -- 95
2021-02-13 21:00:00 6.5 5 Nordeste 12 Este 0 -- -- 94
2021-02-13 20:00:00 7.6 6 Este 10 Este 0 -- -- 90
2021-02-13 19:00:00 8.8 7 Este 12 Sudeste 0 -- -- 85
2021-02-13 18:00:00 10.5 4 Sudeste 10 Sur 0 -- -- 77
2021-02-13 17:00:00 11.1 4 Sudoeste 13 Oeste 0 -- -- 69
2021-02-13 16:00:00 11.1 10 Oeste 23 Noroeste 0 -- -- 68
2021-02-13 15:00:00 12.2 15 Noroeste 23 Oeste 0 -- -- 56
2021-02-13 14:00:00 12.2 8 Oeste 15 Oeste 0 -- -- 56
2021-02-13 13:00:00 12 7 Oeste 14 Oeste 0 -- -- 58
2021-02-13 08:00:00 -- -- -- -- -- -- -- -- --
2021-02-13 07:00:00 2.1 11 Norte 14 Norte 0 -- -- 89
2021-02-13 06:00:00 3.6 9 Norte 18 Norte 0 -- -- 84
2021-02-13 05:00:00 4.4 3 Este 12 Noroeste 0 -- -- 82
2021-02-13 04:00:00 6.1 13 Noroeste 21 Noroeste 0 -- -- 75
2021-02-13 03:00:00 5.9 14 Oeste 19 Noroeste 0 -- -- 83
2021-02-13 02:00:00 4.1 5 Norte 22 Noroeste 0 -- -- 88
2021-02-13 01:00:00 6.8 19 Noroeste 26 Noroeste 0 -- -- 81
2021-02-13 00:00:00 6 7 Norte 21 Noroeste 0 -- -- 86
2021-02-12 23:00:00 5.7 13 Noroeste 23 Oeste 0 -- -- 92
2021-02-12 22:00:00 6.4 14 Noroeste 23 Oeste 0 -- -- 94
2021-02-12 21:00:00 7.1 15 Noroeste 22 Noroeste 0 -- -- 95
2021-02-12 20:00:00 6.7 7 Noroeste 11 Noroeste 0 -- -- 97
2021-02-12 19:00:00 8.5 4 Oeste 6 Oeste 0 -- -- 96
2021-02-12 18:00:00 9.2 6 Noroeste 19 Noroeste 0 -- -- 98
2021-02-12 17:00:00 8.6 14 Noroeste 24 Oeste 0.2 -- -- 98
2021-02-12 16:00:00 8.2 15 Noroeste 23 Noroeste 1 -- -- 98
2021-02-12 15:00:00 8.2 13 Oeste 21 Oeste 0.4 -- -- 97
2021-02-12 14:00:00 8.2 10 Noroeste 22 Oeste 1 -- -- 95
2021-02-12 13:00:00 9.6 10 Oeste 17 Oeste 0.4 -- -- 92
2021-02-12 12:00:00 9.2 8 Noroeste 13 Oeste 0.2 -- -- 90
2021-02-12 11:00:00 8 3 Noroeste 6 Noroeste 0 -- -- 91
2021-02-12 10:00:00 7.5 0 Calma 4 Norte 0 -- -- 91
2021-02-12 09:00:00 6.9 0 Calma 5 Noroeste 0 -- -- 91
2021-02-12 08:00:00 6.7 0 Calma 4 Nordeste 0 -- -- 91
2021-02-12 07:00:00 6.7 0 Calma 5 Sur 0 -- -- 90
2021-02-12 06:00:00 6.6 0 Calma 4 Sur 0 -- -- 93
2021-02-12 05:00:00 6.3 2 Norte 6 Norte 0 -- -- 94
2021-02-12 04:00:00 5.8 0 Calma 8 Norte 0 -- -- 95
2021-02-12 03:00:00 5.3 4 Norte 9 Norte 0 -- -- 94
2021-02-12 02:00:00 5.3 0 Calma 8 Norte 0 -- -- 94
2021-02-12 01:00:00 5.3 5 Norte 13 Norte 0 -- -- 94
2021-02-12 00:00:00 5.3 4 Norte 10 Norte 0 -- -- 94
2021-02-11 23:00:00 6.1 2 Nordeste 7 Norte 0 -- -- 92
2021-02-11 22:00:00 6.4 5 Norte 10 Norte 0 -- -- 91
2021-02-11 21:00:00 6.9 8 Norte 11 Norte 0 -- -- 89
2021-02-11 20:00:00 7.6 9 Norte 11 Norte 0 -- -- 87
2021-02-11 19:00:00 10.2 0 Calma 12 Noroeste 0 -- -- 79
2021-02-11 18:00:00 11.8 9 Noroeste 23 Oeste 0 -- -- 72
2021-02-11 17:00:00 12.3 17 Oeste 24 Oeste 0 -- -- 69
2021-02-11 16:00:00 12.3 13 Oeste 23 Oeste 0 -- -- 65
2021-02-11 15:00:00 11.6 13 Oeste 21 Oeste 0 -- -- 62
2021-02-11 14:00:00 11.4 11 Oeste 22 Oeste 0 -- -- 58
2021-02-11 13:00:00 11.1 9 Sudoeste 16 Sudoeste 0 -- -- 58
2021-02-11 12:00:00 9.3 8 Oeste 14 Oeste 0 -- -- 62
2021-02-11 11:00:00 7.4 3 Sudoeste 9 Este 0 -- -- 71
2021-02-11 10:00:00 4 0 Calma 7 Norte 0 -- -- 91
2021-02-11 09:00:00 1.2 3 Sudoeste 9 Norte 0 -- -- 95
2021-02-11 08:00:00 -0.2 0 Calma 10 Norte 0 -- -- 95
2021-02-11 07:00:00 0 6 Norte 10 Norte 0 -- -- 95
2021-02-11 06:00:00 0.3 6 Norte 9 Norte 0 -- -- 95
2021-02-11 05:00:00 0.5 7 Norte 10 Norte 0 -- -- 94
2021-02-11 04:00:00 0.2 3 Norte 11 Norte 0 -- -- 95
2021-02-11 03:00:00 0.4 4 Norte 11 Noroeste 0 -- -- 93
2021-02-11 02:00:00 0.9 6 Norte 13 Norte 0 -- -- 94
2021-02-11 01:00:00 0.8 0 Calma 12 Norte 0 -- -- 92
2021-02-11 00:00:00 1.7 2 Norte 12 Oeste 0 -- -- 87
2021-02-10 23:00:00 3.9 11 Oeste 19 Noroeste 0 -- -- 85
2021-02-10 22:00:00 4.3 17 Noroeste 25 Noroeste 0 -- -- 84
2021-02-10 21:00:00 4.6 18 Noroeste 24 Oeste 0 -- -- 82
2021-02-10 20:00:00 5 15 Noroeste 24 Noroeste 0 -- -- 81
2021-02-10 19:00:00 6.5 14 Noroeste 34 Oeste 0 -- -- 74
2021-02-10 18:00:00 8.4 20 Oeste 40 Oeste 0 -- -- 66
2021-02-10 17:00:00 9.4 28 Oeste 40 Oeste 0 -- -- 60
2021-02-10 16:00:00 9.7 24 Oeste 42 Oeste 0 -- -- 62
2021-02-10 15:00:00 8.8 19 Oeste 35 Oeste 0 -- -- 75
2021-02-10 14:00:00 7.9 18 Oeste 35 Oeste 0 -- -- 82
2021-02-10 13:00:00 6 15 Noroeste 22 Oeste 0 -- -- 91
2021-02-10 12:00:00 4.6 17 Oeste 28 Oeste 0 -- -- 95
2021-02-10 11:00:00 4.3 13 Noroeste 21 Oeste 0 -- -- 96
2021-02-10 10:00:00 3.2 11 Oeste 17 Oeste 0.6 -- -- 97
2021-02-10 09:00:00 3.3 6 Oeste 8 Oeste 0.8 -- -- 99
2021-02-10 08:00:00 2.8 0 Calma 5 Nordeste 0.4 -- -- 98
2021-02-10 07:00:00 2.4 0 Calma 7 Nordeste 0 -- -- 98
2021-02-10 06:00:00 2.5 4 Norte 9 Este 0 -- -- 98
2021-02-10 05:00:00 3 2 Noroeste 6 Norte 0 -- -- 98
2021-02-10 04:00:00 3.1 0 Calma 6 Oeste 0 -- -- 98
2021-02-10 03:00:00 3.4 7 Oeste 10 Noroeste 0 -- -- 98
2021-02-10 02:00:00 3.6 9 Noroeste 15 Noroeste 0 -- -- 99
2021-02-10 01:00:00 3.4 10 Noroeste 15 Noroeste 0.2 -- -- 99
2021-02-10 00:00:00 3.2 0 Calma 12 Oeste 0 -- -- 99
2021-02-09 23:00:00 3.3 10 Noroeste 15 Noroeste 0 -- -- 99
2021-02-09 22:00:00 3.5 5 Oeste 17 Noroeste 0 -- -- 98
2021-02-09 21:00:00 4.2 10 Noroeste 21 Oeste 0 -- -- 98
2021-02-09 20:00:00 4.9 2 Este 14 Noroeste 0.2 -- -- 98
2021-02-09 19:00:00 4.5 11 Nordeste 18 Este 0.4 -- -- 97
2021-02-09 18:00:00 4.8 17 Este 23 Este 1.2 -- -- 96
2021-02-09 17:00:00 5 16 Nordeste 22 Nordeste 2.4 -- -- 96
2021-02-09 16:00:00 5.6 12 Este 16 Este 1 -- -- 95
2021-02-09 15:00:00 5.5 10 Este 14 Este 1 -- -- 96
2021-02-09 14:00:00 5.6 9 Sudeste 13 Este 0.6 -- -- 95
2021-02-09 13:00:00 5.9 7 Sudeste 10 Sudeste 0 -- -- 94
2021-02-09 12:00:00 5.5 3 Este 6 Sudeste 0.2 -- -- 96
2021-02-09 11:00:00 5 3 Sur 6 Este 0 -- -- 95
2021-02-09 10:00:00 4.2 3 Este 5 Este 0 -- -- 98
2021-02-09 09:00:00 2.7 5 Este 6 Este 0.2 -- -- 96
2021-02-09 08:00:00 2.1 4 Norte 8 Norte 0 -- -- 94
2021-02-09 07:00:00 1.8 7 Norte 9 Norte 0 -- -- 95
2021-02-09 06:00:00 2.2 5 Noroeste 12 Oeste 0 -- -- 94
2021-02-09 05:00:00 2.7 12 Noroeste 17 Noroeste 0 -- -- 93
2021-02-09 04:00:00 3 13 Noroeste 19 Oeste 0 -- -- 94
2021-02-09 03:00:00 2.8 14 Noroeste 18 Noroeste 0 -- -- 95
2021-02-09 02:00:00 0.9 7 Noroeste 12 Noroeste 0 -- -- 96
2021-02-09 01:00:00 2.3 6 Oeste 10 Noroeste 0 -- -- 93
2021-02-09 00:00:00 3.2 12 Noroeste 19 Noroeste 0 -- -- 92
2021-02-08 23:00:00 3.7 11 Noroeste 17 Noroeste 0 -- -- 93
2021-02-08 22:00:00 3.3 11 Noroeste 14 Noroeste 0 -- -- 96
2021-02-08 21:00:00 4.4 9 Noroeste 19 Oeste 0 -- -- 91
2021-02-08 20:00:00 4.4 10 Noroeste 22 Oeste 0 -- -- 93
2021-02-08 19:00:00 5.4 13 Oeste 19 Oeste 0 -- -- 92
2021-02-08 18:00:00 5.9 11 Noroeste 27 Oeste 0 -- -- 92
2021-02-08 17:00:00 6.1 16 Oeste 28 Noroeste 0.2 -- -- 92
2021-02-08 16:00:00 5.6 15 Oeste 24 Oeste 1 -- -- 93
2021-02-08 15:00:00 6.3 13 Oeste 25 Oeste 0 -- -- 91
2021-02-08 14:00:00 4.9 10 Noroeste 18 Oeste 0.6 -- -- 95
2021-02-08 13:00:00 5 6 Oeste 11 Oeste 0.4 -- -- 93
2021-02-08 12:00:00 4.9 2 Sudoeste 8 Noroeste 0.4 -- -- 91
2021-02-08 11:00:00 4.6 3 Este 5 Oeste 0 -- -- 90
2021-02-08 10:00:00 4.6 0 Calma 5 Sudoeste 0 -- -- 89
2021-02-08 09:00:00 3.5 4 Nordeste 7 Nordeste 0 -- -- 94
2021-02-08 08:00:00 3.1 3 Sur 6 Oeste 0 -- -- 92
2021-02-08 07:00:00 2.8 3 Este 8 Noroeste 0 -- -- 91
2021-02-08 06:00:00 2.9 6 Noroeste 10 Noroeste 0 -- -- 91
2021-02-08 05:00:00 3.1 6 Noroeste 13 Noroeste 0.2 -- -- 89
2021-02-08 04:00:00 2.5 10 Noroeste 13 Noroeste 0 -- -- 85
2021-02-08 03:00:00 2.5 0 Calma 12 Noroeste 0 -- -- 79
2021-02-08 02:00:00 3 9 Noroeste 20 Noroeste 0 -- -- 77
2021-02-08 01:00:00 3.7 17 Noroeste 22 Noroeste 0 -- -- 74
2021-02-08 00:00:00 4.2 13 Noroeste 22 Oeste 0 -- -- 73
2021-02-07 23:00:00 5.2 17 Oeste 26 Oeste 0 -- -- 69
2021-02-07 22:00:00 5.3 16 Oeste 26 Oeste 0 -- -- 72
2021-02-07 21:00:00 4.4 6 Noroeste 12 Oeste 0 -- -- 79
2021-02-07 20:00:00 5.7 6 Noroeste 12 Oeste 0 -- -- 73
2021-02-07 19:00:00 6.1 6 Noroeste 19 Noroeste 0 -- -- 72
2021-02-07 18:00:00 7.2 13 Oeste 25 Oeste 0 -- -- 67
2021-02-07 17:00:00 8.7 14 Oeste 30 Oeste 0 -- -- 61
2021-02-07 16:00:00 9.4 10 Sudoeste 25 Oeste 0 -- -- 47
2021-02-07 15:00:00 9.7 13 Sudoeste 26 Sudoeste 0 -- -- 47
2021-02-07 14:00:00 8.8 12 Oeste 23 Oeste 0 -- -- 56
2021-02-07 13:00:00 7.7 12 Oeste 21 Oeste 0 -- -- 69
2021-02-07 12:00:00 6.6 11 Oeste 22 Oeste 0 -- -- 76
2021-02-07 11:00:00 5.4 10 Oeste 15 Noroeste 0 -- -- 84
2021-02-07 10:00:00 3.9 8 Oeste 13 Oeste 0 -- -- 89
2021-02-07 09:00:00 3.8 6 Noroeste 17 Oeste 0 -- -- 92
2021-02-07 08:00:00 3.8 13 Noroeste 19 Oeste 0 -- -- 96
2021-02-07 07:00:00 3.9 7 Noroeste 12 Noroeste 0 -- -- 97
2021-02-07 06:00:00 4.1 5 Noroeste 9 Oeste 0.2 -- -- 98
2021-02-07 05:00:00 4.2 7 Oeste 13 Oeste 0.4 -- -- 98
2021-02-07 04:00:00 4.5 2 Noroeste 4 Oeste 0 -- -- 98
2021-02-07 03:00:00 4.2 3 Nordeste 7 Norte 0 -- -- 98
2021-02-07 02:00:00 3.9 2 Nordeste 10 Este 0 -- -- 97
2021-02-07 01:00:00 3.7 5 Este 10 Este 0 -- -- 95
2021-02-07 00:00:00 3.7 5 Norte 9 Norte 0 -- -- 90
2021-02-06 23:00:00 4.3 8 Norte 10 Norte 0 -- -- 88
2021-02-06 22:00:00 6 5 Norte 10 Noroeste 0 -- -- 86
2021-02-06 21:00:00 7.5 9 Noroeste 13 Oeste 0 -- -- 80
2021-02-06 20:00:00 7.7 10 Noroeste 22 Oeste 0 -- -- 79
2021-02-06 19:00:00 8.7 16 Oeste 26 Oeste 0 -- -- 77
2021-02-06 18:00:00 10.8 10 Oeste 20 Oeste 0 -- -- 67
2021-02-06 17:00:00 12.3 10 Oeste 21 Oeste 0 -- -- 59
2021-02-06 16:00:00 11.1 13 Oeste 23 Oeste 0 -- -- 71
2021-02-06 15:00:00 11.6 9 Oeste 22 Oeste 0 -- -- 66
2021-02-06 14:00:00 11.6 11 Oeste 21 Oeste 0 -- -- 68
2021-02-06 13:00:00 11 8 Oeste 15 Noroeste 0 -- -- 69
2021-02-06 12:00:00 10.2 11 Noroeste 18 Oeste 0 -- -- 72
2021-02-06 11:00:00 10.6 5 Sudeste 7 Sudeste 0 -- -- 71
2021-02-06 10:00:00 9.6 3 Sudoeste 8 Norte 0 -- -- 73
2021-02-06 09:00:00 8.9 0 Calma 14 Sudoeste 0 -- -- 75
2021-02-06 08:00:00 8.9 8 Oeste 25 Noroeste 0 -- -- 72
2021-02-06 07:00:00 11.5 6 Sudeste 13 Sur 0 -- -- 53
2021-02-06 06:00:00 11.7 5 Sudoeste 29 Este 0 -- -- 50
2021-02-06 05:00:00 11.8 19 Este 28 Este 0 -- -- 48
2021-02-06 04:00:00 13.3 22 Este 31 Este 0 -- -- 41
2021-02-06 03:00:00 13.6 13 Este 22 Este 0 -- -- 39
2021-02-06 02:00:00 12.9 12 Este 32 Nordeste 0 -- -- 42
2021-02-06 01:00:00 13 20 Este 30 Este 0 -- -- 42
2021-02-06 00:00:00 12.2 21 Este 35 Este 0 -- -- 46
2021-02-05 23:00:00 12.2 18 Este 29 Este 0 -- -- 48
2021-02-05 22:00:00 12.5 19 Este 31 Este 0 -- -- 49
2021-02-05 21:00:00 12.9 22 Este 32 Este 0 -- -- 47
2021-02-05 20:00:00 12.8 24 Este 34 Este 0 -- -- 49
2021-02-05 19:00:00 12 16 Este 21 Este 0 -- -- 55
2021-02-05 18:00:00 13.6 15 Sudeste 32 Este 0 -- -- 53
2021-02-05 17:00:00 15 19 Este 33 Este 0 -- -- 50
2021-02-05 16:00:00 15.7 22 Sudeste 39 Sudeste 0 -- -- 48
2021-02-05 15:00:00 16.2 27 Sudeste 41 Sudeste 0 -- -- 45
2021-02-05 14:00:00 16.3 28 Sudeste 39 Sudeste 0 -- -- 42
2021-02-05 13:00:00 16.5 28 Sudeste 41 Este 0 -- -- 43
2021-02-05 12:00:00 15.7 21 Sudeste 33 Sudeste 0 -- -- 48
2021-02-05 11:00:00 13.5 16 Sudeste 33 Este 0 -- -- 56
2021-02-05 10:00:00 12.2 24 Este 37 Este 0 -- -- 57
2021-02-05 09:00:00 9.3 9 Este 24 Este 0 -- -- 71
2021-02-05 08:00:00 11.6 3 Sudeste 15 Este 0 -- -- 59
2021-02-05 07:00:00 12.2 5 Este 13 Este 0 -- -- 55
2021-02-05 06:00:00 11.6 3 Norte 9 Norte 0 -- -- 57
2021-02-05 05:00:00 11.3 9 Norte 15 Nordeste 0 -- -- 59
2021-02-05 04:00:00 11.1 8 Este 12 Este 0 -- -- 61
2021-02-05 03:00:00 11.3 5 Sudeste 13 Este 0 -- -- 62
2021-02-05 02:00:00 11.8 6 Este 17 Nordeste 0 -- -- 60
2021-02-05 01:00:00 11.4 13 Este 17 Este 0 -- -- 64
2021-02-05 00:00:00 11.4 5 Este 16 Este 0 -- -- 66
2021-02-04 23:00:00 11.1 6 Este 16 Este 0 -- -- 68
2021-02-04 22:00:00 11.2 11 Este 17 Este 0 -- -- 71
2021-02-04 21:00:00 10.8 10 Este 17 Este 0 -- -- 74
2021-02-04 20:00:00 11.4 15 Este 25 Este 0 -- -- 73
2021-02-04 19:00:00 12.1 16 Este 24 Este 0 -- -- 70
2021-02-04 18:00:00 12.7 14 Este 21 Este 0 -- -- 66
2021-02-04 17:00:00 13.6 11 Este 26 Este 0 -- -- 64
2021-02-04 16:00:00 14.6 15 Este 24 Este 0 -- -- 59
2021-02-04 15:00:00 14.7 16 Este 23 Este 0 -- -- 60
2021-02-04 14:00:00 14.6 14 Este 19 Sudeste 0 -- -- 63
2021-02-04 13:00:00 13.2 6 Sudeste 21 Sudeste 0 -- -- 68
2021-02-04 12:00:00 12 10 Este 14 Este 0 -- -- 70
2021-02-04 11:00:00 10.6 8 Sudeste 13 Sudeste 0 -- -- 77
2021-02-04 10:00:00 8.4 5 Nordeste 9 Nordeste 0 -- -- 86
2021-02-04 09:00:00 6.3 8 Norte 10 Nordeste 0 -- -- 90
2021-02-04 08:00:00 6.3 4 Sudeste 13 Nordeste 0 -- -- 90
2021-02-04 07:00:00 6.4 3 Este 6 Este 0 -- -- 88
2021-02-04 06:00:00 6.9 0 Calma 6 Norte 0 -- -- 88
2021-02-04 05:00:00 7.3 0 Calma 8 Noroeste 0 -- -- 87
2021-02-04 04:00:00 7.1 5 Norte 10 Norte 0 -- -- 87
2021-02-04 03:00:00 7.5 3 Nordeste 10 Norte 0 -- -- 86
2021-02-04 02:00:00 7.8 0 Calma 11 Norte 0 -- -- 85
2021-02-04 01:00:00 7.5 6 Norte 10 Norte 0 -- -- 86
2021-02-04 00:00:00 7.7 0 Calma 10 Norte 0 -- -- 86
2021-02-03 23:00:00 7.6 5 Norte 14 Norte 0 -- -- 87
2021-02-03 22:00:00 7.2 10 Norte 13 Norte 0 -- -- 88
2021-02-03 21:00:00 7.8 8 Norte 11 Norte 0 -- -- 85
2021-02-03 20:00:00 8.1 8 Noroeste 12 Noroeste 0 -- -- 83
2021-02-03 19:00:00 10.2 9 Noroeste 17 Oeste 0 -- -- 75
2021-02-03 18:00:00 12.6 12 Noroeste 26 Noroeste 0 -- -- 66
2021-02-03 17:00:00 13.9 18 Oeste 30 Oeste 0 -- -- 61
2021-02-03 16:00:00 14.2 18 Oeste 28 Oeste 0 -- -- 59
2021-02-03 15:00:00 14.1 13 Oeste 23 Oeste 0 -- -- 61
2021-02-03 14:00:00 13.4 13 Noroeste 20 Noroeste 0 -- -- 63
2021-02-03 13:00:00 12.3 12 Noroeste 23 Noroeste 0 -- -- 65
2021-02-03 12:00:00 11.1 11 Oeste 23 Oeste 0 -- -- 74
2021-02-03 11:00:00 9 8 Noroeste 14 Oeste 0 -- -- 84
2021-02-03 10:00:00 7.4 4 Sudoeste 7 Sudoeste 0 -- -- 91
2021-02-03 09:00:00 3.9 0 Calma 12 Norte 0 -- -- 97
2021-02-03 08:00:00 3.6 0 Calma 8 Noroeste 0 -- -- 96
2021-02-03 07:00:00 3.6 6 Norte 12 Norte 0 -- -- 96
2021-02-03 06:00:00 4 6 Noroeste 11 Norte 0 -- -- 95
2021-02-03 05:00:00 4.3 9 Norte 12 Norte 0 -- -- 94
2021-02-03 04:00:00 4.9 6 Noroeste 13 Noroeste 0 -- -- 93
2021-02-03 03:00:00 4.8 9 Noroeste 14 Noroeste 0 -- -- 93
2021-02-03 02:00:00 5.1 8 Norte 13 Norte 0 -- -- 94
2021-02-03 01:00:00 5.3 10 Norte 13 Norte 0 -- -- 92
2021-02-03 00:00:00 5.8 10 Norte 12 Norte 0 -- -- 91
2021-02-02 23:00:00 6.2 9 Norte 12 Norte 0 -- -- 89
2021-02-02 22:00:00 6.7 9 Norte 14 Norte 0 -- -- 90
2021-02-02 21:00:00 7.4 8 Norte 12 Norte 0 -- -- 86
2021-02-02 20:00:00 8.7 7 Norte 12 Norte 0 -- -- 84
2021-02-02 19:00:00 11 7 Noroeste 13 Oeste 0 -- -- 77
2021-02-02 18:00:00 13.4 5 Oeste 18 Oeste 0 -- -- 69
2021-02-02 17:00:00 14.5 11 Oeste 19 Oeste 0 -- -- 64
2021-02-02 16:00:00 14.6 10 Oeste 23 Oeste 0 -- -- 64
2021-02-02 15:00:00 14.1 13 Oeste 19 Oeste 0 -- -- 66
2021-02-02 14:00:00 13.4 13 Oeste 23 Oeste 0 -- -- 68
2021-02-02 13:00:00 12.8 14 Oeste 23 Oeste 0 -- -- 69
2021-02-02 12:00:00 12.7 5 Sudoeste 10 Oeste 0 -- -- 70
2021-02-02 11:00:00 10.6 5 Sudeste 12 Sudeste 0 -- -- 77
2021-02-02 10:00:00 8.1 6 Sudeste 8 Este 0 -- -- 85
2021-02-02 09:00:00 5 0 Calma 9 Norte 0 -- -- 93
2021-02-02 08:00:00 5.4 0 Calma 20 Noroeste 0 -- -- 89
2021-02-02 07:00:00 7.5 17 Noroeste 22 Noroeste 0 -- -- 88
2021-02-02 06:00:00 6.7 10 Oeste 17 Noroeste 0 -- -- 90
2021-02-02 05:00:00 7.1 10 Oeste 19 Noroeste 0 -- -- 85
2021-02-02 04:00:00 7.8 14 Noroeste 37 Noroeste 0 -- -- 83
2021-02-02 03:00:00 9.5 21 Noroeste 34 Noroeste 0 -- -- 79
2021-02-02 02:00:00 8.9 20 Noroeste 29 Oeste 0 -- -- 74
2021-02-02 01:00:00 9 15 Noroeste 22 Oeste 0 -- -- 70
2021-02-02 00:00:00 9 15 Noroeste 30 Noroeste 0 -- -- 71
2021-02-01 23:00:00 10 21 Noroeste 33 Noroeste 0 -- -- 67
2021-02-01 22:00:00 9.5 19 Noroeste 26 Noroeste 0 -- -- 74
2021-02-01 21:00:00 9.8 20 Noroeste 32 Noroeste 0 -- -- 74
2021-02-01 20:00:00 9.8 17 Noroeste 26 Noroeste 0 -- -- 74
2021-02-01 19:00:00 9.7 11 Noroeste 36 Oeste 0 -- -- 77
2021-02-01 18:00:00 10.7 24 Oeste 47 Oeste 0 -- -- 74
2021-02-01 17:00:00 12.5 34 Oeste 52 Oeste 0 -- -- 66
2021-02-01 16:00:00 13.9 33 Oeste 57 Oeste 0 -- -- 53
2021-02-01 15:00:00 12.6 35 Oeste 56 Oeste 0 -- -- 57
2021-02-01 14:00:00 13.3 39 Oeste 56 Oeste 0 -- -- 53
2021-02-01 13:00:00 12.7 29 Oeste 58 Oeste 0 -- -- 55
2021-02-01 12:00:00 11.3 41 Oeste 61 Oeste 0 -- -- 61
2021-02-01 11:00:00 10.4 24 Noroeste 42 Noroeste 0 -- -- 67
2021-02-01 10:00:00 9.2 26 Noroeste 44 Oeste 0 -- -- 71
2021-02-01 09:00:00 8.6 28 Oeste 44 Oeste 0 -- -- 72
2021-02-01 08:00:00 8.1 21 Noroeste 45 Noroeste 0 -- -- 74
2021-02-01 07:00:00 8.6 27 Noroeste 51 Noroeste 0.2 -- -- 72
2021-02-01 06:00:00 8.6 26 Noroeste 45 Noroeste 0 -- -- 71
2021-02-01 05:00:00 8.6 23 Noroeste 45 Oeste 0 -- -- 71
2021-02-01 04:00:00 8.2 15 Noroeste 33 Noroeste 0 -- -- 75
2021-02-01 03:00:00 7.7 12 Oeste 37 Noroeste 0 -- -- 82
2021-02-01 02:00:00 7.5 16 Noroeste 26 Oeste 0 -- -- 91
2021-02-01 01:00:00 7.4 14 Noroeste 30 Oeste 1.4 -- -- 91
2021-02-01 00:00:00 6.6 5 Noroeste 14 Oeste 0 -- -- 88
2021-01-31 23:00:00 5.9 8 Norte 12 Norte 0 -- -- 84
2021-01-31 22:00:00 8.6 10 Noroeste 30 Noroeste 0 -- -- 75
2021-01-31 21:00:00 8.6 15 Noroeste 24 Oeste 0 -- -- 73
2021-01-31 20:00:00 9 15 Oeste 27 Oeste 0 -- -- 73
2021-01-31 19:00:00 9.6 16 Noroeste 34 Oeste 0 -- -- 76
2021-01-31 18:00:00 9.9 13 Oeste 37 Oeste 0 -- -- 80
2021-01-31 17:00:00 11.7 17 Oeste 33 Oeste 0 -- -- 71
2021-01-31 16:00:00 12.1 24 Oeste 38 Oeste 0 -- -- 66
2021-01-31 15:00:00 12.2 25 Oeste 42 Oeste 0 -- -- 63
2021-01-31 14:00:00 11.9 23 Oeste 44 Oeste 0 -- -- 61
2021-01-31 13:00:00 11 25 Oeste 44 Oeste 0 -- -- 64
2021-01-31 12:00:00 9.6 28 Oeste 51 Oeste 0 -- -- 71
2021-01-31 11:00:00 7.2 26 Oeste 37 Oeste 0 -- -- 80
2021-01-31 10:00:00 5.5 24 Noroeste 33 Noroeste 0 -- -- 85
2021-01-31 09:00:00 4.1 17 Noroeste 27 Noroeste 0 -- -- 88
2021-01-31 08:00:00 4 18 Noroeste 26 Noroeste 0 -- -- 87
2021-01-31 07:00:00 3.3 16 Noroeste 26 Noroeste 0 -- -- 92
2021-01-31 06:00:00 3.5 15 Noroeste 25 Noroeste 0 -- -- 91
2021-01-31 05:00:00 3.6 17 Noroeste 26 Oeste 0 -- -- 90
2021-01-31 04:00:00 3.5 14 Noroeste 27 Noroeste 0 -- -- 91
2021-01-31 03:00:00 3.4 16 Noroeste 27 Noroeste 0 -- -- 92
2021-01-31 02:00:00 3.5 11 Noroeste 27 Oeste 0 -- -- 89
2021-01-31 01:00:00 5.3 10 Oeste 40 Noroeste 0 -- -- 76
2021-01-31 00:00:00 6.1 24 Oeste 50 Noroeste 0 -- -- 71
2021-01-30 23:00:00 5.9 15 Noroeste 35 Oeste 0 -- -- 67
2021-01-30 22:00:00 5.4 15 Noroeste 28 Noroeste 0 -- -- 68
2021-01-30 21:00:00 5.6 14 Noroeste 35 Noroeste 0 -- -- 69
2021-01-30 20:00:00 5.7 18 Noroeste 38 Noroeste 0 -- -- 71
2021-01-30 19:00:00 6.4 21 Noroeste 42 Noroeste 0 -- -- 71
2021-01-30 18:00:00 7.8 22 Noroeste 38 Noroeste 0 -- -- 70
2021-01-30 17:00:00 8 21 Noroeste 43 Noroeste 0.2 -- -- 75
2021-01-30 16:00:00 9.2 19 Oeste 41 Oeste 0 -- -- 75
2021-01-30 15:00:00 8.8 17 Noroeste 44 Noroeste 1.2 -- -- 83
2021-01-30 14:00:00 10 17 Oeste 42 Oeste 0 -- -- 80
2021-01-30 13:00:00 10.3 22 Oeste 41 Oeste 0.2 -- -- 83
2021-01-30 12:00:00 8.5 21 Oeste 31 Oeste 0 -- -- 89
2021-01-30 11:00:00 8.3 12 Noroeste 25 Oeste 0 -- -- 89
2021-01-30 10:00:00 6.7 12 Oeste 29 Oeste 0.2 -- -- 95
2021-01-30 09:00:00 6.8 19 Oeste 32 Oeste 2.2 -- -- 95
2021-01-30 08:00:00 7 8 Noroeste 14 Oeste 0.4 -- -- 94
2021-01-30 07:00:00 5.8 2 Nordeste 13 Oeste 0 -- -- 91
2021-01-30 06:00:00 7.3 12 Noroeste 16 Noroeste 0 -- -- 87
2021-01-30 05:00:00 6.4 9 Noroeste 19 Oeste 0 -- -- 91
2021-01-30 04:00:00 5.7 6 Noroeste 12 Norte 0 -- -- 92
2021-01-30 03:00:00 5.3 5 Norte 12 Norte 0 -- -- 91
2021-01-30 02:00:00 5.7 6 Norte 8 Noroeste 0 -- -- 89
2021-01-30 01:00:00 6.1 7 Noroeste 14 Norte 0 -- -- 88
2021-01-30 00:00:00 6.3 10 Norte 14 Noroeste 0 -- -- 86